Time;durP1;ratioP1;P1;durP2;ratioP2;P2;SDS_P1;SDS_P2;PMS_P1;PMS_P2;Temp;Humidity;BMP_temperature;BMP_pressure;BME280_temperature;BME280_humidity;BME280_pressure;Samples;Min_cycle;Max_cycle;Signal;HPM_P1;HPM_P2
2021/10/27 00:00:59;;;;;;;5.23;3.73;;;13.10;96.10;;;;;;5113833;28;20461;-60
2021/10/27 00:03:26;;;;;;;4.23;3.47;;;13.10;96.10;;;;;;5113611;28;20444;-61
2021/10/27 00:05:53;;;;;;;8.93;3.83;;;13.20;96.20;;;;;;5113816;28;20446;-61
2021/10/27 00:08:20;;;;;;;5.10;3.97;;;13.10;96.20;;;;;;5113493;28;20445;-61
2021/10/27 00:10:48;;;;;;;5.17;3.80;;;13.10;96.30;;;;;;5113678;28;20468;-61
2021/10/27 00:13:15;;;;;;;6.90;4.20;;;13.10;96.30;;;;;;5113556;28;20513;-61
2021/10/27 00:15:42;;;;;;;6.83;3.90;;;13.10;96.40;;;;;;5113647;28;20463;-61
2021/10/27 00:18:12;;;;;;;4.37;3.93;;;13.10;96.50;;;;;;5113689;28;20527;-61
2021/10/27 00:20:39;;;;;;;7.13;3.90;;;13.10;96.50;;;;;;5113565;28;20501;-61
2021/10/27 00:23:06;;;;;;;5.10;3.77;;;13.10;96.60;;;;;;5113593;28;20536;-61
2021/10/27 00:25:33;;;;;;;6.10;3.83;;;13.10;96.60;;;;;;5117712;28;20801;-61
2021/10/27 00:28:00;;;;;;;6.70;4.00;;;13.10;96.60;;;;;;5117514;28;20437;-61
2021/10/27 00:30:27;;;;;;;6.50;3.17;;;13.10;96.70;;;;;;5117628;28;20457;-61
2021/10/27 00:32:54;;;;;;;5.07;3.80;;;13.20;96.80;;;;;;5117676;28;20449;-61
2021/10/27 00:35:23;;;;;;;5.33;3.90;;;13.10;96.70;;;;;;5117403;28;20456;-61
2021/10/27 00:37:50;;;;;;;6.20;3.63;;;13.10;96.70;;;;;;5117257;28;20485;-61
2021/10/27 00:40:17;;;;;;;4.30;3.20;;;13.20;96.80;;;;;;5117358;28;20449;-61
2021/10/27 00:42:44;;;;;;;6.87;4.00;;;13.10;96.70;;;;;;5117566;28;20432;-61
2021/10/27 00:45:11;;;;;;;7.10;4.33;;;13.10;96.80;;;;;;5117503;28;20444;-61
2021/10/27 00:47:38;;;;;;;5.77;3.40;;;13.10;96.80;;;;;;5117410;28;20441;-61
2021/10/27 00:50:06;;;;;;;7.10;4.20;;;13.20;96.90;;;;;;5117403;28;20451;-61
2021/10/27 00:52:35;;;;;;;4.70;3.60;;;13.10;96.80;;;;;;5117054;28;20444;-61
2021/10/27 00:55:04;;;;;;;4.97;3.37;;;13.10;96.80;;;;;;5116945;28;20571;-61
2021/10/27 00:57:31;;;;;;;5.83;3.90;;;13.10;96.90;;;;;;5116945;28;20437;-61
2021/10/27 00:59:58;;;;;;;4.23;3.30;;;13.10;96.90;;;;;;5116866;28;20444;-61
2021/10/27 01:02:25;;;;;;;10.67;3.73;;;13.10;96.90;;;;;;5117094;28;20437;-61
2021/10/27 01:04:52;;;;;;;5.80;3.47;;;13.10;97.00;;;;;;5117164;28;20441;-61
2021/10/27 01:07:19;;;;;;;5.77;3.40;;;13.10;97.00;;;;;;5117091;28;20445;-61
2021/10/27 01:09:49;;;;;;;7.77;3.97;;;13.10;97.10;;;;;;5117013;28;20455;-61
2021/10/27 01:12:16;;;;;;;6.07;3.20;;;13.00;97.10;;;;;;5116898;28;20468;-61
2021/10/27 01:14:45;;;;;;;6.73;3.90;;;13.00;97.10;;;;;;5116831;28;20473;-61
2021/10/27 01:17:14;;;;;;;5.63;4.27;;;13.00;97.20;;;;;;5116884;28;20437;-61
2021/10/27 01:19:46;;;;;;;4.77;4.00;;;13.00;97.20;;;;;;5117335;28;20463;-61
2021/10/27 01:22:14;;;;;;;5.40;3.73;;;13.00;97.30;;;;;;5116798;28;20519;-61
2021/10/27 01:24:41;;;;;;;5.17;4.50;;;13.00;97.40;;;;;;5116435;28;20922;-61
2021/10/27 01:27:08;;;;;;;6.80;4.13;;;13.00;97.40;;;;;;5116320;28;20452;-61
2021/10/27 01:29:36;;;;;;;7.60;4.63;;;13.00;97.50;;;;;;5116629;28;20444;-61
2021/10/27 01:32:03;;;;;;;6.17;3.53;;;13.00;97.50;;;;;;5116223;28;20873;-61
2021/10/27 01:34:32;;;;;;;6.80;4.97;;;13.00;97.60;;;;;;5116767;28;20476;-61
2021/10/27 01:37:01;;;;;;;6.57;4.63;;;13.00;97.70;;;;;;5115919;28;20441;-59
2021/10/27 01:39:28;;;;;;;7.27;4.90;;;13.00;97.70;;;;;;5116517;28;20772;-60
2021/10/27 01:41:56;;;;;;;8.33;4.77;;;13.00;97.80;;;;;;5116108;28;20547;-61
2021/10/27 01:44:23;;;;;;;4.93;4.53;;;13.00;97.80;;;;;;5116271;28;20437;-60
2021/10/27 01:46:50;;;;;;;7.03;5.17;;;13.00;97.90;;;;;;5116011;28;20441;-61
2021/10/27 01:49:17;;;;;;;8.60;5.60;;;13.00;98.00;;;;;;5116384;28;20456;-60
2021/10/27 01:51:44;;;;;;;5.73;4.93;;;13.00;98.10;;;;;;5116420;28;20473;-60
2021/10/27 01:54:13;;;;;;;13.10;5.60;;;13.00;98.20;;;;;;5116207;28;20504;-60
2021/10/27 01:56:40;;;;;;;10.67;5.50;;;13.00;98.30;;;;;;5118414;28;20445;-60
2021/10/27 01:59:07;;;;;;;11.33;7.80;;;13.00;98.40;;;;;;5116471;28;20929;-60
2021/10/27 02:01:34;;;;;;;11.53;6.17;;;13.00;98.50;;;;;;5116022;28;20841;-60
2021/10/27 02:04:01;;;;;;;9.27;6.20;;;13.00;98.60;;;;;;5115794;28;20438;-60
2021/10/27 02:06:28;;;;;;;8.17;6.30;;;13.00;98.70;;;;;;5115921;28;20463;-61
2021/10/27 02:08:55;;;;;;;12.50;8.07;;;13.00;98.80;;;;;;5116109;28;20450;-61
2021/10/27 02:11:24;;;;;;;9.87;7.30;;;13.00;98.80;;;;;;5115858;28;20469;-60
2021/10/27 02:13:51;;;;;;;10.40;7.43;;;13.00;99.00;;;;;;5115511;28;21003;-61
2021/10/27 02:16:18;;;;;;;8.40;7.27;;;13.00;99.10;;;;;;5115564;28;20441;-60
2021/10/27 02:18:45;;;;;;;12.70;8.13;;;13.00;99.20;;;;;;5115866;28;20448;-60
2021/10/27 02:21:12;;;;;;;11.53;8.13;;;13.00;99.30;;;;;;5115643;28;20472;-60
2021/10/27 02:23:39;;;;;;;12.77;8.20;;;13.00;99.40;;;;;;5115869;28;20437;-59
2021/10/27 02:26:06;;;;;;;13.40;8.40;;;13.00;99.50;;;;;;5115660;28;20440;-60
2021/10/27 02:28:35;;;;;;;8.70;7.67;;;13.00;99.60;;;;;;5115796;28;20515;-60
2021/10/27 02:31:02;;;;;;;11.67;8.47;;;13.00;99.70;;;;;;5116036;28;20461;-60
2021/10/27 02:33:29;;;;;;;10.43;8.67;;;13.00;99.70;;;;;;5116283;28;20445;-60
2021/10/27 02:35:56;;;;;;;14.33;9.63;;;13.00;99.90;;;;;;5116032;28;20468;-60
2021/10/27 02:38:23;;;;;;;11.97;8.40;;;13.00;99.90;;;;;;5115602;28;20445;-60
2021/10/27 02:40:50;;;;;;;12.70;10.13;;;13.00;99.90;;;;;;5137030;22;20478;-64
2021/10/27 02:43:18;;;;;;;13.33;10.33;;;13.00;99.90;;;;;;5116571;28;20487;-65
2021/10/27 02:45:46;;;;;;;13.43;10.17;;;13.00;99.90;;;;;;5116598;28;20437;-65
2021/10/27 02:48:14;;;;;;;13.67;10.73;;;13.00;99.90;;;;;;5115089;28;20853;-64
2021/10/27 02:50:41;;;;;;;14.20;10.60;;;12.90;99.90;;;;;;5115402;28;20449;-65
2021/10/27 02:53:08;;;;;;;16.93;10.80;;;12.90;99.90;;;;;;5115488;28;20440;-65
2021/10/27 02:55:35;;;;;;;12.87;10.17;;;13.00;99.90;;;;;;5115157;28;20485;-64
2021/10/27 02:58:03;;;;;;;13.53;9.40;;;13.00;99.90;;;;;;5115288;28;20441;-64
2021/10/27 03:00:30;;;;;;;12.03;10.70;;;13.00;99.90;;;;;;5115168;28;20631;-64
2021/10/27 03:02:59;;;;;;;14.10;10.00;;;12.90;99.90;;;;;;5115063;28;20941;-64
2021/10/27 03:05:26;;;;;;;17.90;10.50;;;12.90;99.90;;;;;;5114930;28;20816;-64
2021/10/27 03:07:53;;;;;;;15.40;10.13;;;13.00;99.90;;;;;;5114826;28;20443;-64
2021/10/27 03:10:20;;;;;;;13.23;10.50;;;12.90;99.90;;;;;;5114533;28;20955;-64
2021/10/27 03:12:47;;;;;;;14.17;10.67;;;12.90;99.90;;;;;;5114358;28;20936;-64
2021/10/27 03:15:14;;;;;;;12.33;10.20;;;12.90;99.90;;;;;;5114629;28;20473;-64
2021/10/27 03:17:41;;;;;;;12.90;10.03;;;12.90;99.90;;;;;;5114378;28;20449;-64
2021/10/27 03:20:11;;;;;;;16.30;11.27;;;13.00;99.90;;;;;;5114380;28;20446;-65
2021/10/27 03:22:38;;;;;;;11.17;9.43;;;13.00;99.90;;;;;;5114063;28;20464;-65
2021/10/27 03:25:06;;;;;;;11.80;9.27;;;13.00;99.90;;;;;;5114415;28;20495;-65
2021/10/27 03:27:33;;;;;;;12.90;9.60;;;13.00;99.90;;;;;;5114066;28;20437;-65
2021/10/27 03:30:00;;;;;;;13.10;10.53;;;13.00;99.90;;;;;;5114317;28;20437;-64
2021/10/27 03:32:28;;;;;;;13.40;9.97;;;13.00;99.90;;;;;;5114114;28;20981;-64
2021/10/27 03:34:55;;;;;;;15.07;10.40;;;13.00;99.90;;;;;;5114122;28;20837;-65
2021/10/27 03:37:24;;;;;;;12.10;10.00;;;13.00;99.90;;;;;;5114250;28;20433;-64
2021/10/27 03:39:51;;;;;;;15.27;10.50;;;13.00;99.90;;;;;;5113835;28;20445;-65
2021/10/27 03:42:18;;;;;;;13.43;10.83;;;13.00;99.90;;;;;;5113967;28;20476;-64
2021/10/27 03:44:45;;;;;;;14.30;11.13;;;13.10;99.90;;;;;;5113909;28;20455;-65
2021/10/27 03:47:12;;;;;;;15.33;10.50;;;13.10;99.90;;;;;;5113881;28;20445;-65
2021/10/27 03:49:40;;;;;;;16.73;11.43;;;13.10;99.90;;;;;;5113905;28;20444;-64
2021/10/27 03:52:07;;;;;;;16.30;12.00;;;13.10;99.90;;;;;;5114385;28;20469;-63
2021/10/27 03:54:35;;;;;;;16.17;11.00;;;13.10;99.90;;;;;;5114118;28;20503;-63
2021/10/27 03:57:03;;;;;;;16.80;11.10;;;13.10;99.90;;;;;;5113869;28;20445;-65
2021/10/27 03:59:31;;;;;;;12.70;11.30;;;13.10;99.90;;;;;;5115072;28;20464;-64
2021/10/27 04:01:58;;;;;;;18.40;10.73;;;13.10;99.90;;;;;;5113972;28;20858;-63
2021/10/27 04:04:25;;;;;;;15.03;9.80;;;13.10;99.90;;;;;;5114105;28;20430;-64
2021/10/27 04:08:49;;;;;;;10.50;9.40;;;13.20;99.90;;;;;;5100088;27;20583;-65
2021/10/27 04:11:16;;;;;;;13.00;9.10;;;13.20;99.90;;;;;;5092447;28;20462;-64
2021/10/27 04:13:43;;;;;;;18.10;11.00;;;13.20;99.90;;;;;;5094268;28;20453;-63
2021/10/27 04:16:10;;;;;;;11.73;9.70;;;13.20;99.90;;;;;;5097583;28;20451;-65
2021/10/27 04:18:37;;;;;;;11.30;9.40;;;13.20;99.90;;;;;;5101609;28;20458;-63
2021/10/27 04:21:04;;;;;;;16.97;10.50;;;13.20;99.90;;;;;;5095495;28;20505;-64
2021/10/27 04:23:31;;;;;;;10.60;9.50;;;13.20;99.90;;;;;;5094226;28;20811;-65
2021/10/27 04:26:00;;;;;;;10.53;8.70;;;13.20;99.90;;;;;;5101914;28;20439;-64
2021/10/27 04:28:27;;;;;;;11.27;9.37;;;13.20;99.90;;;;;;5096742;28;20481;-65
2021/10/27 04:30:55;;;;;;;9.90;8.97;;;13.30;99.90;;;;;;5096838;28;20469;-65
2021/10/27 04:33:23;;;;;;;14.60;9.83;;;13.30;99.90;;;;;;5099509;28;20521;-65
2021/10/27 04:35:52;;;;;;;10.73;8.60;;;13.30;99.90;;;;;;5097166;28;20446;-64
2021/10/27 04:38:21;;;;;;;10.10;8.33;;;13.30;99.90;;;;;;5092970;28;20453;-62
2021/10/27 04:40:49;;;;;;;9.00;8.10;;;13.30;99.90;;;;;;5092719;28;20500;-64
2021/10/27 04:43:18;;;;;;;14.23;8.87;;;13.30;99.90;;;;;;5094854;28;20491;-63
2021/10/27 04:45:46;;;;;;;10.57;9.57;;;13.30;99.90;;;;;;5093064;28;20442;-63
2021/10/27 04:48:13;;;;;;;11.43;8.97;;;13.20;99.90;;;;;;5092792;28;20531;-63
2021/10/27 04:50:41;;;;;;;10.97;8.87;;;13.20;99.90;;;;;;5093000;28;20446;-65
2021/10/27 04:53:14;;;;;;;9.10;8.20;;;13.20;99.90;;;;;;5093025;28;20458;-64
2021/10/27 04:55:41;;;;;;;9.47;8.27;;;13.20;99.90;;;;;;5092464;28;20501;-64
2021/10/27 04:58:09;;;;;;;11.60;8.53;;;13.20;99.90;;;;;;5092816;28;20909;-64
2021/10/27 05:00:37;;;;;;;15.43;8.80;;;13.20;99.90;;;;;;5094191;28;20474;-64
2021/10/27 05:03:04;;;;;;;9.57;8.13;;;13.20;99.90;;;;;;5103083;28;20443;-66
2021/10/27 05:05:34;;;;;;;9.27;8.33;;;13.20;99.90;;;;;;5101729;28;20442;-63
2021/10/27 05:08:02;;;;;;;13.90;8.80;;;13.20;99.90;;;;;;5096720;28;20478;-64
2021/10/27 05:10:30;;;;;;;9.60;8.17;;;13.20;99.90;;;;;;5091695;28;20453;-65
2021/10/27 05:12:57;;;;;;;10.40;9.40;;;13.20;99.90;;;;;;5091201;28;20445;-63
2021/10/27 05:15:24;;;;;;;10.50;8.87;;;13.20;99.90;;;;;;5090839;28;20450;-65
2021/10/27 05:17:52;;;;;;;12.53;9.10;;;13.20;99.90;;;;;;5090043;28;20438;-65
2021/10/27 05:20:19;;;;;;;14.20;10.27;;;13.20;99.90;;;;;;5075821;28;20439;-64
2021/10/27 05:22:46;;;;;;;10.93;9.60;;;13.20;99.90;;;;;;5076132;28;20462;-65
2021/10/27 05:25:14;;;;;;;11.87;10.67;;;13.20;99.90;;;;;;5076270;28;20446;-64
2021/10/27 05:27:41;;;;;;;12.80;9.90;;;13.30;99.90;;;;;;5076825;28;20486;-64
2021/10/27 05:30:09;;;;;;;10.97;9.93;;;13.30;99.90;;;;;;5076186;28;20447;-64
2021/10/27 05:32:36;;;;;;;12.70;10.17;;;13.30;99.90;;;;;;5080699;28;20467;-62
2021/10/27 05:35:05;;;;;;;13.30;9.67;;;13.40;99.90;;;;;;5088061;28;20482;-64
2021/10/27 05:37:32;;;;;;;13.90;9.77;;;13.40;99.90;;;;;;5088434;28;20799;-64
2021/10/27 05:39:59;;;;;;;12.67;11.50;;;13.40;99.90;;;;;;5084708;28;20515;-64
2021/10/27 05:42:29;;;;;;;10.93;9.83;;;13.40;99.90;;;;;;5077588;28;20474;-64
2021/10/27 05:44:58;;;;;;;12.10;10.07;;;13.50;99.90;;;;;;5075772;28;20447;-64
2021/10/27 05:47:25;;;;;;;11.63;9.63;;;13.50;99.90;;;;;;5075451;28;21004;-63
2021/10/27 05:49:54;;;;;;;10.27;9.20;;;13.50;99.90;;;;;;5075513;28;20457;-64
2021/10/27 05:55:27;;;;;;;10.83;9.73;;;13.60;99.90;;;;;;5075967;28;20776;-64
2021/10/27 05:57:55;;;;;;;10.67;9.57;;;13.60;99.90;;;;;;5075892;28;20439;-64
2021/10/27 06:00:22;;;;;;;9.93;8.83;;;13.60;99.90;;;;;;5075589;28;20517;-63
2021/10/27 06:02:49;;;;;;;11.30;10.17;;;13.60;99.90;;;;;;5075479;28;20486;-64
2021/10/27 06:05:17;;;;;;;10.00;9.07;;;13.60;99.90;;;;;;5075545;28;20451;-65
2021/10/27 06:07:46;;;;;;;9.30;8.60;;;13.60;99.90;;;;;;5074876;28;20479;-65
2021/10/27 06:10:19;;;;;;;8.97;8.17;;;13.60;99.90;;;;;;5074821;28;20461;-64
2021/10/27 06:12:46;;;;;;;9.80;8.23;;;13.70;99.90;;;;;;5075516;28;20540;-65
2021/10/27 06:15:13;;;;;;;10.17;8.43;;;13.70;99.90;;;;;;5075266;28;20446;-65
2021/10/27 06:17:40;;;;;;;12.53;8.17;;;13.70;99.90;;;;;;5075169;28;20927;-64
2021/10/27 06:20:09;;;;;;;9.50;8.50;;;13.70;99.90;;;;;;5075584;28;20455;-63
2021/10/27 06:22:36;;;;;;;7.87;6.80;;;13.70;99.90;;;;;;5074760;28;21001;-64
2021/10/27 06:25:08;;;;;;;12.10;8.70;;;13.60;99.90;;;;;;5075429;28;20804;-64
2021/10/27 06:27:36;;;;;;;12.40;7.77;;;13.60;99.90;;;;;;5074594;28;20478;-65
2021/10/27 06:30:05;;;;;;;10.23;7.33;;;13.60;99.90;;;;;;5073892;28;20450;-64
2021/10/27 06:32:36;;;;;;;8.40;7.00;;;13.60;99.90;;;;;;5074421;28;20972;-64
2021/10/27 06:35:09;;;;;;;9.07;7.07;;;13.60;99.90;;;;;;5074646;28;20903;-63
2021/10/27 06:37:50;;;;;;;9.83;8.73;;;13.60;99.90;;;;;;5074577;28;20918;-65
2021/10/27 06:46:23;;;;;;;10.50;8.70;;;13.60;99.90;;;;;;5074558;28;20399;-63
2021/10/27 06:48:49;;;;;;;15.13;9.00;;;13.60;99.90;;;;;;5074158;28;20874;-63
2021/10/27 06:51:17;;;;;;;10.00;8.17;;;13.60;99.90;;;;;;5074657;28;20467;-63
2021/10/27 06:53:44;;;;;;;9.57;8.57;;;13.60;99.90;;;;;;5074964;28;20455;-62
2021/10/27 06:56:13;;;;;;;9.90;8.90;;;13.60;99.90;;;;;;5074184;28;20603;-64
2021/10/27 06:58:45;;;;;;;10.57;9.00;;;13.60;99.90;;;;;;5073958;28;20490;-62
2021/10/27 07:01:18;;;;;;;9.90;8.87;;;13.60;99.90;;;;;;5075022;28;20475;-64
2021/10/27 07:06:57;;;;;;;8.63;7.60;;;13.70;99.90;;;;;;5091306;27;20603;-63
2021/10/27 07:15:13;;;;;;;8.30;7.50;;;13.70;99.90;;;;;;5091172;28;20397;-64
2021/10/27 07:17:48;;;;;;;9.10;8.30;;;13.70;99.90;;;;;;5090671;28;20450;-64
2021/10/27 07:20:16;;;;;;;9.07;8.27;;;13.70;99.90;;;;;;5090477;28;20434;-62
2021/10/27 07:22:44;;;;;;;9.93;8.40;;;13.70;99.90;;;;;;5090211;28;20462;-64
2021/10/27 07:25:12;;;;;;;8.57;7.77;;;13.70;99.90;;;;;;5090034;28;20481;-64
2021/10/27 07:27:39;;;;;;;8.47;7.67;;;13.70;99.90;;;;;;5089998;28;20446;-65
2021/10/27 07:30:07;;;;;;;8.33;7.53;;;13.70;99.90;;;;;;5090218;28;20449;-64
2021/10/27 07:32:35;;;;;;;7.70;6.90;;;13.70;99.90;;;;;;5090623;28;20454;-64
2021/10/27 07:35:13;;;;;;;8.20;7.40;;;13.70;99.90;;;;;;5090266;28;20992;-64
2021/10/27 07:40:35;;;;;;;8.30;6.57;;;13.80;99.90;;;;;;5090466;28;20517;-64
2021/10/27 07:43:07;;;;;;;9.43;8.47;;;13.80;99.90;;;;;;5090178;28;20478;-64
2021/10/27 07:45:37;;;;;;;8.60;7.70;;;13.80;99.90;;;;;;5090342;28;20462;-64
2021/10/27 07:48:05;;;;;;;9.73;7.10;;;13.70;99.90;;;;;;5089819;28;20953;-63
2021/10/27 07:50:33;;;;;;;6.60;6.10;;;13.80;99.90;;;;;;5089738;28;20445;-65
2021/10/27 07:53:03;;;;;;;7.77;7.07;;;13.80;99.90;;;;;;5090019;28;20446;-64
2021/10/27 07:55:33;;;;;;;7.70;7.00;;;13.80;99.90;;;;;;5089999;28;20435;-63
2021/10/27 07:58:01;;;;;;;8.80;6.60;;;13.80;99.90;;;;;;5089970;28;20818;-63
2021/10/27 08:00:29;;;;;;;10.70;7.50;;;13.90;99.90;;;;;;5090297;28;20442;-64
2021/10/27 08:03:00;;;;;;;8.53;7.77;;;13.90;99.90;;;;;;5090236;28;20608;-64
2021/10/27 08:05:29;;;;;;;9.33;6.87;;;13.90;99.90;;;;;;5089385;28;20558;-63
2021/10/27 08:07:57;;;;;;;10.00;6.80;;;14.00;99.90;;;;;;5089682;28;20458;-65
2021/10/27 08:10:27;;;;;;;8.20;7.23;;;14.00;99.90;;;;;;5089665;28;20439;-63
2021/10/27 08:12:54;;;;;;;9.30;7.40;;;14.10;99.90;;;;;;5089453;28;20450;-62
2021/10/27 08:15:22;;;;;;;7.53;6.80;;;14.20;99.90;;;;;;5089600;28;20444;-63
2021/10/27 08:17:49;;;;;;;7.60;6.90;;;14.30;99.90;;;;;;5076995;28;20442;-64
2021/10/27 08:20:21;;;;;;;11.67;7.20;;;14.30;99.90;;;;;;5075925;28;20911;-64
2021/10/27 08:22:54;;;;;;;10.40;6.63;;;14.40;99.90;;;;;;5075669;28;20466;-64
2021/10/27 08:25:28;;;;;;;7.23;6.33;;;14.40;99.90;;;;;;5075705;28;20467;-64
2021/10/27 08:27:57;;;;;;;11.17;6.70;;;14.50;99.90;;;;;;5075669;28;20430;-64
2021/10/27 08:30:34;;;;;;;6.53;5.70;;;14.50;99.90;;;;;;5076053;28;20500;-63
2021/10/27 08:33:03;;;;;;;7.97;6.13;;;14.50;99.90;;;;;;5076060;28;20431;-64
2021/10/27 08:35:32;;;;;;;6.70;5.50;;;14.40;99.90;;;;;;5075599;28;20471;-62
2021/10/27 08:37:59;;;;;;;7.00;6.03;;;14.50;99.90;;;;;;5075919;28;20462;-64
2021/10/27 08:40:27;;;;;;;8.70;5.70;;;14.50;99.90;;;;;;5075686;28;20443;-63
2021/10/27 08:42:57;;;;;;;6.70;6.00;;;14.50;99.90;;;;;;5075358;28;20459;-63
2021/10/27 08:45:25;;;;;;;7.03;5.40;;;14.50;99.90;;;;;;5075101;28;20486;-63
2021/10/27 08:47:53;;;;;;;10.30;5.50;;;14.60;99.90;;;;;;5075607;28;20446;-64
2021/10/27 08:50:21;;;;;;;5.77;5.27;;;14.70;99.90;;;;;;5075729;28;20453;-63
2021/10/27 08:52:49;;;;;;;5.60;4.93;;;14.70;99.90;;;;;;5075042;28;20478;-63
2021/10/27 08:55:17;;;;;;;7.70;4.77;;;14.80;99.90;;;;;;5075297;28;20851;-64
2021/10/27 08:57:47;;;;;;;7.00;5.17;;;14.90;99.90;;;;;;5077773;28;20454;-67
2021/10/27 09:00:19;;;;;;;5.33;4.83;;;15.00;99.90;;;;;;5082424;28;20483;-65
2021/10/27 09:03:03;;;;;;;5.83;4.63;;;15.10;99.90;;;;;;5080583;28;20467;-67
2021/10/27 09:40:42;;;;;;;6.30;3.70;;;16.20;98.00;;;;;;5073844;28;20410;-65
2021/10/27 09:43:29;;;;;;;6.03;3.47;;;16.20;97.90;;;;;;5073838;28;20506;-63
2021/10/27 10:06:23;;;;;;;7.43;3.00;;;16.60;95.10;;;;;;5072960;28;20478;-64
2021/10/27 10:08:50;;;;;;;3.40;2.87;;;16.60;94.90;;;;;;5073955;28;20795;-63
2021/10/27 10:11:19;;;;;;;3.27;2.80;;;16.60;94.70;;;;;;5073031;28;20471;-64
2021/10/27 10:13:47;;;;;;;6.30;3.97;;;16.60;94.40;;;;;;5073416;28;20451;-65
2021/10/27 10:16:15;;;;;;;4.73;3.00;;;16.60;94.20;;;;;;5073238;28;20826;-64
2021/10/27 10:18:44;;;;;;;5.93;3.30;;;16.60;94.20;;;;;;5074490;28;20458;-64
2021/10/27 10:21:13;;;;;;;8.00;3.50;;;16.60;94.10;;;;;;5072948;28;20478;-63
2021/10/27 10:23:42;;;;;;;4.03;3.00;;;16.60;94.10;;;;;;5072828;28;20439;-64
2021/10/27 10:26:09;;;;;;;4.10;2.53;;;16.60;94.00;;;;;;5072977;28;20485;-64
2021/10/27 10:28:41;;;;;;;3.23;2.80;;;16.60;93.90;;;;;;5073079;28;20974;-65
2021/10/27 10:31:09;;;;;;;4.63;2.70;;;16.60;93.90;;;;;;5072938;28;20478;-64
2021/10/27 10:33:40;;;;;;;5.07;2.93;;;16.50;93.90;;;;;;5072893;28;20443;-64
2021/10/27 10:36:12;;;;;;;6.30;3.40;;;16.50;93.90;;;;;;5073053;28;20431;-64
2021/10/27 10:39:00;;;;;;;3.77;2.80;;;16.50;93.80;;;;;;5073049;28;20522;-65
2021/10/27 10:41:56;;;;;;;3.27;2.67;;;16.50;93.70;;;;;;5073167;28;20473;-64
2021/10/27 10:45:20;;;;;;;3.77;3.03;;;16.50;93.80;;;;;;5073206;28;20459;-64
2021/10/27 10:59:56;;;;;;;3.87;2.57;;;16.50;93.70;;;;;;5073005;28;20403;-62
2021/10/27 11:39:53;;;;;;;4.50;1.80;;;16.70;92.20;;;;;;5074070;28;20502;-61
2021/10/27 11:42:43;;;;;;;3.50;2.93;;;16.70;92.10;;;;;;5073439;28;20529;-62
2021/10/27 11:48:09;;;;;;;7.97;2.77;;;16.80;91.80;;;;;;5068914;28;20427;-61
2021/10/27 11:50:38;;;;;;;3.03;1.93;;;16.90;91.70;;;;;;5072541;28;20427;-61
2021/10/27 11:53:06;;;;;;;4.13;1.67;;;16.90;91.50;;;;;;5075396;28;20969;-62
2021/10/27 11:55:37;;;;;;;2.10;1.90;;;16.90;91.30;;;;;;5076804;28;20437;-61
2021/10/27 11:58:05;;;;;;;6.63;1.77;;;16.90;91.10;;;;;;5076893;28;20540;-62
2021/10/27 12:00:37;;;;;;;3.50;1.40;;;17.00;91.10;;;;;;5076852;28;20442;-63
2021/10/27 12:03:08;;;;;;;2.53;1.50;;;17.00;90.80;;;;;;5076671;28;20756;-62
2021/10/27 12:05:42;;;;;;;2.50;1.70;;;17.00;90.70;;;;;;5076135;28;20497;-60
2021/10/27 12:08:24;;;;;;;2.87;1.50;;;17.10;90.50;;;;;;5076376;28;20438;-61
2021/10/27 12:11:10;;;;;;;3.40;2.10;;;17.20;90.20;;;;;;5076020;28;20471;-60
2021/10/27 12:17:00;;;;;;;4.20;1.80;;;17.40;89.50;;;;;;5075890;28;20855;-61
2021/10/27 12:19:30;;;;;;;2.03;1.07;;;17.50;88.80;;;;;;5076418;28;20453;-62
2021/10/27 12:22:01;;;;;;;2.13;1.83;;;17.50;88.10;;;;;;5075763;28;20455;-63
2021/10/27 12:24:30;;;;;;;3.97;1.87;;;17.50;87.30;;;;;;5076284;28;20843;-62
2021/10/27 12:27:02;;;;;;;2.43;1.70;;;17.40;87.30;;;;;;5075822;28;20487;-62
2021/10/27 12:29:31;;;;;;;2.00;1.50;;;17.50;87.20;;;;;;5076295;28;20428;-61
2021/10/27 12:32:09;;;;;;;4.83;1.87;;;17.50;86.80;;;;;;5075879;28;20459;-63
2021/10/27 12:34:44;;;;;;;3.03;1.57;;;17.50;86.60;;;;;;5088876;28;20419;-63
2021/10/27 12:37:22;;;;;;;3.50;1.57;;;17.50;86.30;;;;;;5096609;28;20457;-62
2021/10/27 12:39:49;;;;;;;2.60;1.90;;;17.50;86.10;;;;;;5089134;22;20527;-62
2021/10/27 12:42:16;;;;;;;5.00;2.10;;;17.60;86.00;;;;;;5035087;28;20575;-62
2021/10/27 12:44:49;;;;;;;3.90;2.33;;;17.60;85.50;;;;;;5035064;28;20476;-62
2021/10/27 12:47:22;;;;;;;2.20;1.70;;;17.60;85.00;;;;;;5034428;28;20480;-62
2021/10/27 12:49:51;;;;;;;3.37;1.70;;;17.70;84.90;;;;;;5034817;28;20465;-62
2021/10/27 12:52:38;;;;;;;8.23;2.50;;;17.80;84.30;;;;;;5034175;28;20452;-61
2021/10/27 12:55:20;;;;;;;3.03;1.57;;;17.80;83.80;;;;;;5034470;28;20869;-61
2021/10/27 12:57:52;;;;;;;3.40;1.50;;;17.80;83.10;;;;;;5034492;28;20433;-62
2021/10/27 13:00:24;;;;;;;5.17;1.43;;;17.80;82.50;;;;;;5034888;28;20484;-62
2021/10/27 13:03:27;;;;;;;3.80;1.60;;;17.80;82.40;;;;;;5034481;28;20425;-62
2021/10/27 13:06:03;;;;;;;4.97;2.07;;;17.80;82.00;;;;;;5034470;28;20500;-62
2021/10/27 13:14:27;;;;;;;5.20;2.20;;;17.80;81.90;;;;;;5034183;28;20401;-62
2021/10/27 13:31:03;;;;;;;1.83;1.43;;;17.70;82.00;;;;;;5034510;28;20404;-62
2021/10/27 13:33:30;;;;;;;6.27;2.20;;;17.60;82.20;;;;;;5034355;28;20483;-64
2021/10/27 13:35:58;;;;;;;4.77;2.10;;;17.50;82.30;;;;;;5034040;28;20456;-61
2021/10/27 13:38:31;;;;;;;4.17;1.93;;;17.50;82.80;;;;;;5034009;28;20436;-62
2021/10/27 13:40:59;;;;;;;3.63;1.80;;;17.40;83.00;;;;;;5033959;28;20417;-61
2021/10/27 13:43:32;;;;;;;5.17;2.83;;;17.40;83.20;;;;;;5034228;28;20445;-63
2021/10/27 13:46:14;;;;;;;4.90;1.67;;;17.40;83.20;;;;;;5033959;28;20440;-62
2021/10/27 13:49:01;;;;;;;4.00;2.00;;;17.40;84.00;;;;;;5034096;28;20460;-62
2021/10/27 14:08:01;;;;;;;3.50;1.40;;;17.50;83.70;;;;;;5033273;28;20456;-61
2021/10/27 14:10:35;;;;;;;2.73;1.63;;;17.50;83.90;;;;;;5033435;28;20469;-61
2021/10/27 14:13:12;;;;;;;2.97;1.50;;;17.50;84.00;;;;;;5033854;28;20527;-60
2021/10/27 14:15:58;;;;;;;4.17;3.63;;;17.50;84.00;;;;;;5032837;28;20429;-61
2021/10/27 14:18:42;;;;;;;3.40;1.80;;;17.50;84.20;;;;;;5033877;28;20842;-61
2021/10/27 15:21:58;;;;;;;4.17;2.20;;;16.70;89.10;;;;;;5033029;28;20760;-61
2021/10/27 15:24:52;;;;;;;6.83;2.30;;;16.70;89.40;;;;;;5032483;28;20516;-62
2021/10/27 15:30:21;;;;;;;2.17;1.97;;;16.60;89.80;;;;;;5036589;28;20467;-62
2021/10/27 15:33:02;;;;;;;2.83;1.63;;;16.60;90.00;;;;;;5037047;28;20429;-61
2021/10/27 15:35:41;;;;;;;2.93;1.90;;;16.50;90.10;;;;;;5037483;28;20429;-61
2021/10/27 15:41:00;;;;;;;3.20;2.00;;;16.40;90.40;;;;;;5037374;28;20447;-61
2021/10/27 15:43:39;;;;;;;4.93;2.80;;;16.40;90.60;;;;;;5036987;28;20800;-61
2021/10/27 15:51:46;;;;;;;5.80;4.00;;;16.30;91.00;;;;;;5036570;28;20405;-61
2021/10/27 15:54:15;;;;;;;8.40;3.20;;;16.20;91.10;;;;;;5035946;28;20858;-60
2021/10/27 15:56:42;;;;;;;5.50;2.50;;;16.20;91.20;;;;;;5036312;28;20437;-60
2021/10/27 15:59:10;;;;;;;3.57;2.17;;;16.20;91.30;;;;;;5036087;28;20491;-59
2021/10/27 16:01:40;;;;;;;6.20;3.03;;;16.10;91.40;;;;;;5036292;28;20539;-56
2021/10/27 16:04:08;;;;;;;5.63;3.33;;;16.10;91.50;;;;;;5036060;28;20587;-60
2021/10/27 16:06:40;;;;;;;5.13;3.20;;;16.00;91.70;;;;;;5036215;28;20525;-60
2021/10/27 16:09:09;;;;;;;4.23;2.33;;;16.00;91.90;;;;;;5035594;28;20506;-58
2021/10/27 16:11:36;;;;;;;4.03;2.80;;;16.00;92.10;;;;;;5035898;28;20452;-60
2021/10/27 16:14:04;;;;;;;6.60;2.90;;;15.90;92.30;;;;;;5040425;28;20448;-58
2021/10/27 16:16:32;;;;;;;2.73;2.47;;;15.90;92.50;;;;;;5042501;28;20524;-60
2021/10/27 16:19:02;;;;;;;4.43;3.90;;;15.90;92.70;;;;;;5035181;28;20789;-59
2021/10/27 16:21:30;;;;;;;3.37;3.03;;;15.80;92.90;;;;;;5035775;28;20445;-59
2021/10/27 16:23:57;;;;;;;4.80;2.83;;;15.80;93.20;;;;;;5035516;28;20448;-60
2021/10/27 16:26:25;;;;;;;6.07;3.13;;;15.70;93.30;;;;;;5035539;28;20448;-60
2021/10/27 16:28:52;;;;;;;7.30;4.47;;;15.70;93.50;;;;;;5035746;28;20879;-60
2021/10/27 16:31:19;;;;;;;5.07;2.83;;;15.60;93.70;;;;;;5035534;28;20449;-59
2021/10/27 16:33:48;;;;;;;4.43;2.40;;;15.50;93.90;;;;;;5035092;28;20825;-57
2021/10/27 16:36:16;;;;;;;3.20;2.90;;;15.40;94.00;;;;;;5035388;28;20472;-60
2021/10/27 16:38:45;;;;;;;3.10;2.40;;;15.40;94.30;;;;;;5034440;28;20567;-58
2021/10/27 16:41:12;;;;;;;4.17;2.70;;;15.30;94.40;;;;;;5035409;28;20436;-59
2021/10/27 16:43:41;;;;;;;4.97;3.67;;;15.30;94.70;;;;;;5035489;28;20956;-59
2021/10/27 16:46:09;;;;;;;3.43;3.13;;;15.20;94.70;;;;;;5035380;28;20452;-59
2021/10/27 16:48:36;;;;;;;4.93;2.60;;;15.20;94.90;;;;;;5034983;28;20587;-59
2021/10/27 16:51:03;;;;;;;2.70;2.50;;;15.20;95.00;;;;;;5035747;28;20457;-59
2021/10/27 16:53:32;;;;;;;3.17;2.77;;;15.10;95.20;;;;;;5034883;28;20488;-58
2021/10/27 16:56:00;;;;;;;12.97;6.60;;;15.10;95.30;;;;;;5034872;28;20445;-60
2021/10/27 16:58:28;;;;;;;11.80;6.10;;;15.00;95.50;;;;;;5034737;28;20815;-60